sensor_id;sensor_type;location;lat;lon;timestamp;P1;durP1;ratioP1;P2;durP2;ratioP2
19414;SDS011;9843;48.882;12.592;2023-06-14T00:01:59;6.93;;;4.27;;
19414;SDS011;9843;48.882;12.592;2023-06-14T00:04:26;4.33;;;3.93;;
19414;SDS011;9843;48.882;12.592;2023-06-14T00:06:53;4.83;;;4.30;;
19414;SDS011;9843;48.882;12.592;2023-06-14T00:09:21;5.30;;;4.43;;
19414;SDS011;9843;48.882;12.592;2023-06-14T00:11:48;7.00;;;5.17;;
19414;SDS011;9843;48.882;12.592;2023-06-14T00:14:15;4.93;;;4.47;;
19414;SDS011;9843;48.882;12.592;2023-06-14T00:16:42;5.67;;;3.60;;
19414;SDS011;9843;48.882;12.592;2023-06-14T00:19:11;6.50;;;5.23;;
19414;SDS011;9843;48.882;12.592;2023-06-14T00:21:38;8.40;;;3.87;;
19414;SDS011;9843;48.882;12.592;2023-06-14T00:24:07;5.00;;;4.53;;
19414;SDS011;9843;48.882;12.592;2023-06-14T00:26:34;5.97;;;3.90;;
19414;SDS011;9843;48.882;12.592;2023-06-14T00:29:01;4.83;;;4.33;;
19414;SDS011;9843;48.882;12.592;2023-06-14T00:31:28;4.77;;;3.57;;
19414;SDS011;9843;48.882;12.592;2023-06-14T00:33:55;4.93;;;3.67;;
19414;SDS011;9843;48.882;12.592;2023-06-14T00:36:23;3.77;;;3.43;;
19414;SDS011;9843;48.882;12.592;2023-06-14T00:38:51;3.97;;;3.57;;
19414;SDS011;9843;48.882;12.592;2023-06-14T00:41:18;4.73;;;3.87;;
19414;SDS011;9843;48.882;12.592;2023-06-14T00:43:45;7.73;;;4.40;;
19414;SDS011;9843;48.882;12.592;2023-06-14T00:46:12;6.57;;;3.67;;
19414;SDS011;9843;48.882;12.592;2023-06-14T00:48:39;3.73;;;3.43;;
19414;SDS011;9843;48.882;12.592;2023-06-14T00:51:06;4.57;;;3.43;;
19414;SDS011;9843;48.882;12.592;2023-06-14T00:53:35;5.60;;;5.00;;
19414;SDS011;9843;48.882;12.592;2023-06-14T00:56:04;3.97;;;3.57;;
19414;SDS011;9843;48.882;12.592;2023-06-14T00:58:32;5.73;;;3.70;;
19414;SDS011;9843;48.882;12.592;2023-06-14T01:00:59;4.67;;;4.27;;
19414;SDS011;9843;48.882;12.592;2023-06-14T01:03:27;5.13;;;3.57;;
19414;SDS011;9843;48.882;12.592;2023-06-14T01:05:56;5.63;;;4.43;;
19414;SDS011;9843;48.882;12.592;2023-06-14T01:08:28;5.10;;;3.87;;
19414;SDS011;9843;48.882;12.592;2023-06-14T01:11:01;7.60;;;4.00;;
19414;SDS011;9843;48.882;12.592;2023-06-14T01:13:32;3.87;;;3.47;;
19414;SDS011;9843;48.882;12.592;2023-06-14T01:15:59;4.43;;;3.97;;
19414;SDS011;9843;48.882;12.592;2023-06-14T01:18:27;4.10;;;3.67;;
19414;SDS011;9843;48.882;12.592;2023-06-14T01:20:55;8.13;;;4.80;;
19414;SDS011;9843;48.882;12.592;2023-06-14T01:23:24;7.13;;;4.07;;
19414;SDS011;9843;48.882;12.592;2023-06-14T01:25:58;6.23;;;4.07;;
19414;SDS011;9843;48.882;12.592;2023-06-14T01:28:28;6.47;;;4.00;;
19414;SDS011;9843;48.882;12.592;2023-06-14T01:30:57;6.03;;;5.07;;
19414;SDS011;9843;48.882;12.592;2023-06-14T01:33:29;4.20;;;3.90;;
19414;SDS011;9843;48.882;12.592;2023-06-14T01:35:57;8.77;;;4.47;;
19414;SDS011;9843;48.882;12.592;2023-06-14T01:38:26;6.97;;;4.17;;
19414;SDS011;9843;48.882;12.592;2023-06-14T01:40:55;5.37;;;4.83;;
19414;SDS011;9843;48.882;12.592;2023-06-14T01:43:24;5.20;;;4.50;;
19414;SDS011;9843;48.882;12.592;2023-06-14T01:45:51;5.73;;;4.57;;
19414;SDS011;9843;48.882;12.592;2023-06-14T01:48:20;5.30;;;4.00;;
19414;SDS011;9843;48.882;12.592;2023-06-14T01:50:47;3.93;;;3.57;;
19414;SDS011;9843;48.882;12.592;2023-06-14T01:53:15;4.47;;;4.07;;
19414;SDS011;9843;48.882;12.592;2023-06-14T01:55:44;4.37;;;3.97;;
19414;SDS011;9843;48.882;12.592;2023-06-14T01:58:13;10.43;;;4.97;;
19414;SDS011;9843;48.882;12.592;2023-06-14T02:00:41;5.20;;;4.70;;
19414;SDS011;9843;48.882;12.592;2023-06-14T02:03:10;5.43;;;4.50;;
19414;SDS011;9843;48.882;12.592;2023-06-14T02:05:38;5.57;;;5.03;;
19414;SDS011;9843;48.882;12.592;2023-06-14T02:08:05;7.47;;;4.87;;
19414;SDS011;9843;48.882;12.592;2023-06-14T02:10:32;6.67;;;3.93;;
19414;SDS011;9843;48.882;12.592;2023-06-14T02:13:00;6.03;;;5.53;;
19414;SDS011;9843;48.882;12.592;2023-06-14T02:15:27;7.10;;;4.60;;
19414;SDS011;9843;48.882;12.592;2023-06-14T02:17:59;4.90;;;4.40;;
19414;SDS011;9843;48.882;12.592;2023-06-14T02:20:27;5.27;;;4.73;;
19414;SDS011;9843;48.882;12.592;2023-06-14T02:22:54;5.43;;;4.93;;
19414;SDS011;9843;48.882;12.592;2023-06-14T02:25:21;5.33;;;4.73;;
19414;SDS011;9843;48.882;12.592;2023-06-14T02:27:48;9.90;;;5.53;;
19414;SDS011;9843;48.882;12.592;2023-06-14T02:30:16;4.47;;;4.17;;
19414;SDS011;9843;48.882;12.592;2023-06-14T02:32:43;5.87;;;5.00;;
19414;SDS011;9843;48.882;12.592;2023-06-14T02:35:10;9.83;;;5.03;;
19414;SDS011;9843;48.882;12.592;2023-06-14T02:37:38;7.70;;;4.70;;
19414;SDS011;9843;48.882;12.592;2023-06-14T02:40:05;4.13;;;3.83;;
19414;SDS011;9843;48.882;12.592;2023-06-14T02:42:34;5.73;;;5.10;;
19414;SDS011;9843;48.882;12.592;2023-06-14T02:45:01;9.87;;;4.57;;
19414;SDS011;9843;48.882;12.592;2023-06-14T02:47:30;8.03;;;4.77;;
19414;SDS011;9843;48.882;12.592;2023-06-14T02:49:57;11.67;;;4.87;;
19414;SDS011;9843;48.882;12.592;2023-06-14T02:52:24;7.83;;;4.37;;
19414;SDS011;9843;48.882;12.592;2023-06-14T02:54:51;10.23;;;5.63;;
19414;SDS011;9843;48.882;12.592;2023-06-14T02:57:19;5.97;;;4.97;;
19414;SDS011;9843;48.882;12.592;2023-06-14T02:59:46;5.77;;;5.20;;
19414;SDS011;9843;48.882;12.592;2023-06-14T03:02:13;8.63;;;5.00;;
19414;SDS011;9843;48.882;12.592;2023-06-14T03:04:41;4.63;;;4.23;;
19414;SDS011;9843;48.882;12.592;2023-06-14T03:07:09;6.97;;;4.67;;
19414;SDS011;9843;48.882;12.592;2023-06-14T03:09:37;6.40;;;4.07;;
19414;SDS011;9843;48.882;12.592;2023-06-14T03:12:05;4.30;;;3.97;;
19414;SDS011;9843;48.882;12.592;2023-06-14T03:14:32;6.47;;;4.67;;
19414;SDS011;9843;48.882;12.592;2023-06-14T03:16:59;4.93;;;4.43;;
19414;SDS011;9843;48.882;12.592;2023-06-14T03:19:26;7.47;;;5.53;;
19414;SDS011;9843;48.882;12.592;2023-06-14T03:21:55;4.40;;;4.00;;
19414;SDS011;9843;48.882;12.592;2023-06-14T03:24:23;5.77;;;4.33;;
19414;SDS011;9843;48.882;12.592;2023-06-14T03:26:52;5.60;;;4.97;;
19414;SDS011;9843;48.882;12.592;2023-06-14T03:29:19;6.47;;;5.00;;
19414;SDS011;9843;48.882;12.592;2023-06-14T03:31:56;4.57;;;4.17;;
19414;SDS011;9843;48.882;12.592;2023-06-14T03:34:24;8.87;;;4.77;;
19414;SDS011;9843;48.882;12.592;2023-06-14T03:36:51;6.30;;;5.67;;
19414;SDS011;9843;48.882;12.592;2023-06-14T03:39:19;9.53;;;6.33;;
19414;SDS011;9843;48.882;12.592;2023-06-14T03:41:46;5.13;;;4.73;;
19414;SDS011;9843;48.882;12.592;2023-06-14T03:44:14;6.17;;;4.33;;
19414;SDS011;9843;48.882;12.592;2023-06-14T03:46:41;9.03;;;4.37;;
19414;SDS011;9843;48.882;12.592;2023-06-14T03:49:08;8.33;;;5.00;;
19414;SDS011;9843;48.882;12.592;2023-06-14T03:51:36;7.43;;;4.97;;
19414;SDS011;9843;48.882;12.592;2023-06-14T03:54:03;7.50;;;5.27;;
19414;SDS011;9843;48.882;12.592;2023-06-14T03:56:31;5.33;;;4.83;;
19414;SDS011;9843;48.882;12.592;2023-06-14T03:58:58;4.93;;;4.20;;
19414;SDS011;9843;48.882;12.592;2023-06-14T04:01:25;5.20;;;4.77;;
19414;SDS011;9843;48.882;12.592;2023-06-14T04:03:54;7.33;;;5.43;;
19414;SDS011;9843;48.882;12.592;2023-06-14T04:06:21;12.87;;;6.10;;
19414;SDS011;9843;48.882;12.592;2023-06-14T04:08:49;12.20;;;5.50;;
19414;SDS011;9843;48.882;12.592;2023-06-14T04:11:16;7.63;;;5.33;;
19414;SDS011;9843;48.882;12.592;2023-06-14T04:13:45;7.50;;;4.83;;
19414;SDS011;9843;48.882;12.592;2023-06-14T04:16:13;4.93;;;4.53;;
19414;SDS011;9843;48.882;12.592;2023-06-14T04:18:40;7.03;;;4.77;;
19414;SDS011;9843;48.882;12.592;2023-06-14T04:21:07;5.23;;;4.73;;
19414;SDS011;9843;48.882;12.592;2023-06-14T04:23:34;5.30;;;4.80;;
19414;SDS011;9843;48.882;12.592;2023-06-14T04:26:01;4.73;;;4.33;;
19414;SDS011;9843;48.882;12.592;2023-06-14T04:28:28;5.73;;;5.17;;
19414;SDS011;9843;48.882;12.592;2023-06-14T04:30:57;5.67;;;4.90;;
19414;SDS011;9843;48.882;12.592;2023-06-14T04:33:26;5.97;;;5.07;;
19414;SDS011;9843;48.882;12.592;2023-06-14T04:35:53;6.07;;;4.23;;
19414;SDS011;9843;48.882;12.592;2023-06-14T04:38:21;13.70;;;5.63;;
19414;SDS011;9843;48.882;12.592;2023-06-14T04:40:50;5.87;;;4.73;;
19414;SDS011;9843;48.882;12.592;2023-06-14T04:43:18;8.73;;;4.53;;
19414;SDS011;9843;48.882;12.592;2023-06-14T04:45:51;6.43;;;5.60;;
19414;SDS011;9843;48.882;12.592;2023-06-14T04:48:21;5.80;;;5.07;;
19414;SDS011;9843;48.882;12.592;2023-06-14T04:50:48;6.40;;;5.57;;
19414;SDS011;9843;48.882;12.592;2023-06-14T04:53:17;5.73;;;5.23;;
19414;SDS011;9843;48.882;12.592;2023-06-14T04:55:46;5.70;;;4.10;;
19414;SDS011;9843;48.882;12.592;2023-06-14T04:58:13;6.03;;;4.47;;
19414;SDS011;9843;48.882;12.592;2023-06-14T05:00:40;8.40;;;6.57;;
19414;SDS011;9843;48.882;12.592;2023-06-14T05:03:08;6.47;;;4.30;;
19414;SDS011;9843;48.882;12.592;2023-06-14T05:05:39;6.40;;;5.00;;
19414;SDS011;9843;48.882;12.592;2023-06-14T05:08:06;6.43;;;5.83;;
19414;SDS011;9843;48.882;12.592;2023-06-14T05:10:33;6.43;;;4.03;;
19414;SDS011;9843;48.882;12.592;2023-06-14T05:13:01;5.43;;;4.93;;
19414;SDS011;9843;48.882;12.592;2023-06-14T05:15:28;8.43;;;6.00;;
19414;SDS011;9843;48.882;12.592;2023-06-14T05:17:55;5.47;;;4.97;;
19414;SDS011;9843;48.882;12.592;2023-06-14T05:20:22;7.17;;;5.67;;
19414;SDS011;9843;48.882;12.592;2023-06-14T05:22:53;8.03;;;4.97;;
19414;SDS011;9843;48.882;12.592;2023-06-14T05:25:21;7.10;;;5.70;;
19414;SDS011;9843;48.882;12.592;2023-06-14T05:27:49;6.33;;;4.67;;
19414;SDS011;9843;48.882;12.592;2023-06-14T05:30:16;5.20;;;4.70;;
19414;SDS011;9843;48.882;12.592;2023-06-14T05:32:43;7.77;;;4.97;;
19414;SDS011;9843;48.882;12.592;2023-06-14T05:35:10;7.47;;;5.33;;
19414;SDS011;9843;48.882;12.592;2023-06-14T05:37:37;6.37;;;5.77;;
19414;SDS011;9843;48.882;12.592;2023-06-14T05:40:06;7.57;;;4.60;;
19414;SDS011;9843;48.882;12.592;2023-06-14T05:42:34;4.80;;;4.40;;
19414;SDS011;9843;48.882;12.592;2023-06-14T05:45:01;4.80;;;4.23;;
19414;SDS011;9843;48.882;12.592;2023-06-14T05:47:28;5.60;;;3.73;;
19414;SDS011;9843;48.882;12.592;2023-06-14T05:49:56;12.10;;;5.00;;
19414;SDS011;9843;48.882;12.592;2023-06-14T05:52:23;4.77;;;4.23;;
19414;SDS011;9843;48.882;12.592;2023-06-14T05:54:50;5.40;;;4.90;;
19414;SDS011;9843;48.882;12.592;2023-06-14T05:57:18;9.13;;;3.67;;
19414;SDS011;9843;48.882;12.592;2023-06-14T05:59:46;4.27;;;3.60;;
19414;SDS011;9843;48.882;12.592;2023-06-14T06:02:13;8.63;;;4.70;;
19414;SDS011;9843;48.882;12.592;2023-06-14T06:04:40;6.00;;;4.50;;
19414;SDS011;9843;48.882;12.592;2023-06-14T06:07:07;11.23;;;4.97;;
19414;SDS011;9843;48.882;12.592;2023-06-14T06:09:34;6.30;;;4.40;;
19414;SDS011;9843;48.882;12.592;2023-06-14T06:12:01;7.90;;;4.10;;
19414;SDS011;9843;48.882;12.592;2023-06-14T06:14:29;5.50;;;3.93;;
19414;SDS011;9843;48.882;12.592;2023-06-14T06:16:56;4.50;;;4.10;;
19414;SDS011;9843;48.882;12.592;2023-06-14T06:19:23;6.23;;;4.30;;
19414;SDS011;9843;48.882;12.592;2023-06-14T06:21:50;8.53;;;4.07;;
19414;SDS011;9843;48.882;12.592;2023-06-14T06:24:17;6.60;;;3.77;;
19414;SDS011;9843;48.882;12.592;2023-06-14T06:26:44;7.90;;;4.03;;
19414;SDS011;9843;48.882;12.592;2023-06-14T06:29:12;6.47;;;3.87;;
19414;SDS011;9843;48.882;12.592;2023-06-14T06:31:40;6.83;;;3.50;;
19414;SDS011;9843;48.882;12.592;2023-06-14T06:34:07;35.03;;;5.03;;
19414;SDS011;9843;48.882;12.592;2023-06-14T06:36:34;3.07;;;2.47;;
19414;SDS011;9843;48.882;12.592;2023-06-14T06:39:02;5.07;;;3.87;;
19414;SDS011;9843;48.882;12.592;2023-06-14T06:41:34;4.33;;;3.53;;
19414;SDS011;9843;48.882;12.592;2023-06-14T06:44:02;4.70;;;3.33;;
19414;SDS011;9843;48.882;12.592;2023-06-14T06:46:29;4.80;;;3.73;;
19414;SDS011;9843;48.882;12.592;2023-06-14T06:48:58;4.50;;;3.77;;
19414;SDS011;9843;48.882;12.592;2023-06-14T06:51:25;7.53;;;4.47;;
19414;SDS011;9843;48.882;12.592;2023-06-14T06:53:52;6.93;;;5.10;;
19414;SDS011;9843;48.882;12.592;2023-06-14T06:56:19;5.33;;;3.60;;
19414;SDS011;9843;48.882;12.592;2023-06-14T06:58:48;7.77;;;2.47;;
19414;SDS011;9843;48.882;12.592;2023-06-14T07:01:15;5.40;;;3.27;;
19414;SDS011;9843;48.882;12.592;2023-06-14T07:03:42;4.97;;;3.67;;
19414;SDS011;9843;48.882;12.592;2023-06-14T07:06:10;6.00;;;3.87;;
19414;SDS011;9843;48.882;12.592;2023-06-14T07:08:38;4.40;;;2.90;;
19414;SDS011;9843;48.882;12.592;2023-06-14T07:11:05;3.88;;;3.40;;
19414;SDS011;9843;48.882;12.592;2023-06-14T07:13:33;6.07;;;3.30;;
19414;SDS011;9843;48.882;12.592;2023-06-14T07:16:00;4.50;;;3.53;;
19414;SDS011;9843;48.882;12.592;2023-06-14T07:18:27;13.40;;;3.10;;
19414;SDS011;9843;48.882;12.592;2023-06-14T07:20:54;4.22;;;2.92;;
19414;SDS011;9843;48.882;12.592;2023-06-14T07:23:23;6.22;;;3.22;;
19414;SDS011;9843;48.882;12.592;2023-06-14T07:25:50;6.82;;;2.58;;
19414;SDS011;9843;48.882;12.592;2023-06-14T07:28:17;4.10;;;2.17;;
19414;SDS011;9843;48.882;12.592;2023-06-14T07:30:44;5.45;;;2.20;;
19414;SDS011;9843;48.882;12.592;2023-06-14T07:33:13;5.88;;;2.72;;
19414;SDS011;9843;48.882;12.592;2023-06-14T07:35:40;4.40;;;2.85;;
19414;SDS011;9843;48.882;12.592;2023-06-14T07:38:07;5.85;;;2.35;;
19414;SDS011;9843;48.882;12.592;2023-06-14T07:40:35;12.40;;;2.35;;
19414;SDS011;9843;48.882;12.592;2023-06-14T07:43:03;4.70;;;2.28;;
19414;SDS011;9843;48.882;12.592;2023-06-14T07:45:30;3.75;;;3.10;;
19414;SDS011;9843;48.882;12.592;2023-06-14T07:47:57;4.40;;;2.55;;
19414;SDS011;9843;48.882;12.592;2023-06-14T07:50:24;4.97;;;2.13;;
19414;SDS011;9843;48.882;12.592;2023-06-14T07:52:51;8.73;;;3.40;;
19414;SDS011;9843;48.882;12.592;2023-06-14T07:55:18;7.82;;;6.18;;
19414;SDS011;9843;48.882;12.592;2023-06-14T07:57:47;5.32;;;2.20;;
19414;SDS011;9843;48.882;12.592;2023-06-14T08:00:14;8.73;;;3.05;;
19414;SDS011;9843;48.882;12.592;2023-06-14T08:02:43;4.03;;;2.85;;
19414;SDS011;9843;48.882;12.592;2023-06-14T08:05:10;10.82;;;4.00;;
19414;SDS011;9843;48.882;12.592;2023-06-14T08:07:38;5.55;;;2.70;;
19414;SDS011;9843;48.882;12.592;2023-06-14T08:10:06;3.33;;;2.22;;
19414;SDS011;9843;48.882;12.592;2023-06-14T08:12:33;7.35;;;2.50;;
19414;SDS011;9843;48.882;12.592;2023-06-14T08:15:02;3.60;;;2.35;;
19414;SDS011;9843;48.882;12.592;2023-06-14T08:17:29;5.85;;;2.35;;
19414;SDS011;9843;48.882;12.592;2023-06-14T08:19:56;2.88;;;2.47;;
19414;SDS011;9843;48.882;12.592;2023-06-14T08:22:24;5.00;;;2.60;;
19414;SDS011;9843;48.882;12.592;2023-06-14T08:24:53;7.75;;;2.08;;
19414;SDS011;9843;48.882;12.592;2023-06-14T08:27:20;6.88;;;2.53;;
19414;SDS011;9843;48.882;12.592;2023-06-14T08:29:47;3.75;;;2.45;;
19414;SDS011;9843;48.882;12.592;2023-06-14T08:32:16;5.05;;;2.30;;
19414;SDS011;9843;48.882;12.592;2023-06-14T08:34:43;15.75;;;2.80;;
19414;SDS011;9843;48.882;12.592;2023-06-14T08:37:10;5.45;;;3.05;;
19414;SDS011;9843;48.882;12.592;2023-06-14T08:39:37;9.52;;;3.28;;
19414;SDS011;9843;48.882;12.592;2023-06-14T08:42:05;5.10;;;2.05;;
19414;SDS011;9843;48.882;12.592;2023-06-14T08:44:32;6.47;;;2.95;;
19414;SDS011;9843;48.882;12.592;2023-06-14T08:46:59;7.82;;;3.63;;
19414;SDS011;9843;48.882;12.592;2023-06-14T08:49:29;8.57;;;2.53;;
19414;SDS011;9843;48.882;12.592;2023-06-14T08:51:58;9.00;;;3.53;;
19414;SDS011;9843;48.882;12.592;2023-06-14T08:54:25;3.45;;;1.92;;
19414;SDS011;9843;48.882;12.592;2023-06-14T08:56:55;5.10;;;3.53;;
19414;SDS011;9843;48.882;12.592;2023-06-14T08:59:23;5.03;;;2.92;;
19414;SDS011;9843;48.882;12.592;2023-06-14T09:01:51;4.43;;;3.08;;
19414;SDS011;9843;48.882;12.592;2023-06-14T09:04:19;13.30;;;2.40;;
19414;SDS011;9843;48.882;12.592;2023-06-14T09:06:48;8.85;;;2.22;;
19414;SDS011;9843;48.882;12.592;2023-06-14T09:09:17;4.28;;;2.63;;
19414;SDS011;9843;48.882;12.592;2023-06-14T09:11:44;6.70;;;2.35;;
19414;SDS011;9843;48.882;12.592;2023-06-14T09:14:12;4.28;;;2.78;;
19414;SDS011;9843;48.882;12.592;2023-06-14T09:16:40;5.18;;;2.50;;
19414;SDS011;9843;48.882;12.592;2023-06-14T09:19:07;6.53;;;2.78;;
19414;SDS011;9843;48.882;12.592;2023-06-14T09:21:34;5.68;;;3.20;;
19414;SDS011;9843;48.882;12.592;2023-06-14T09:24:04;4.10;;;2.42;;
19414;SDS011;9843;48.882;12.592;2023-06-14T09:26:31;6.72;;;3.08;;
19414;SDS011;9843;48.882;12.592;2023-06-14T09:28:58;6.43;;;3.25;;
19414;SDS011;9843;48.882;12.592;2023-06-14T09:31:25;6.55;;;2.55;;
19414;SDS011;9843;48.882;12.592;2023-06-14T09:33:56;9.30;;;2.25;;
19414;SDS011;9843;48.882;12.592;2023-06-14T09:36:24;4.82;;;2.08;;
19414;SDS011;9843;48.882;12.592;2023-06-14T09:38:52;5.95;;;2.42;;
19414;SDS011;9843;48.882;12.592;2023-06-14T09:41:21;5.78;;;2.50;;
19414;SDS011;9843;48.882;12.592;2023-06-14T09:43:57;5.78;;;2.67;;
19414;SDS011;9843;48.882;12.592;2023-06-14T09:46:25;10.63;;;2.35;;
19414;SDS011;9843;48.882;12.592;2023-06-14T09:48:53;7.93;;;3.03;;
19414;SDS011;9843;48.882;12.592;2023-06-14T09:51:20;3.63;;;2.15;;
19414;SDS011;9843;48.882;12.592;2023-06-14T09:53:49;4.55;;;2.63;;
19414;SDS011;9843;48.882;12.592;2023-06-14T09:56:16;5.60;;;2.58;;
19414;SDS011;9843;48.882;12.592;2023-06-14T09:58:48;7.57;;;2.47;;
19414;SDS011;9843;48.882;12.592;2023-06-14T10:01:16;8.65;;;1.90;;
19414;SDS011;9843;48.882;12.592;2023-06-14T10:03:44;8.30;;;2.65;;
19414;SDS011;9843;48.882;12.592;2023-06-14T10:06:13;6.80;;;2.47;;
19414;SDS011;9843;48.882;12.592;2023-06-14T10:08:40;8.10;;;2.40;;
19414;SDS011;9843;48.882;12.592;2023-06-14T10:11:07;7.25;;;2.75;;
19414;SDS011;9843;48.882;12.592;2023-06-14T10:13:34;7.40;;;2.55;;
19414;SDS011;9843;48.882;12.592;2023-06-14T10:16:07;2.42;;;2.03;;
19414;SDS011;9843;48.882;12.592;2023-06-14T10:18:39;5.05;;;2.65;;
19414;SDS011;9843;48.882;12.592;2023-06-14T10:21:08;6.97;;;2.55;;
19414;SDS011;9843;48.882;12.592;2023-06-14T10:23:40;4.88;;;2.63;;
19414;SDS011;9843;48.882;12.592;2023-06-14T10:26:08;6.82;;;2.53;;
19414;SDS011;9843;48.882;12.592;2023-06-14T10:28:36;4.63;;;2.00;;
19414;SDS011;9843;48.882;12.592;2023-06-14T10:31:09;8.13;;;2.90;;
19414;SDS011;9843;48.882;12.592;2023-06-14T10:33:36;6.45;;;2.60;;
19414;SDS011;9843;48.882;12.592;2023-06-14T10:38:59;6.00;;;2.65;;
19414;SDS011;9843;48.882;12.592;2023-06-14T10:41:27;12.38;;;2.80;;
19414;SDS011;9843;48.882;12.592;2023-06-14T10:46:39;4.93;;;2.17;;
19414;SDS011;9843;48.882;12.592;2023-06-14T10:49:06;5.43;;;2.30;;
19414;SDS011;9843;48.882;12.592;2023-06-14T10:51:37;3.78;;;3.08;;
19414;SDS011;9843;48.882;12.592;2023-06-14T10:54:11;4.60;;;2.92;;
19414;SDS011;9843;48.882;12.592;2023-06-14T10:56:39;3.83;;;2.00;;
19414;SDS011;9843;48.882;12.592;2023-06-14T10:59:12;6.28;;;2.33;;
19414;SDS011;9843;48.882;12.592;2023-06-14T11:01:45;6.25;;;2.75;;
19414;SDS011;9843;48.882;12.592;2023-06-14T11:04:17;2.83;;;2.53;;
19414;SDS011;9843;48.882;12.592;2023-06-14T11:06:47;6.82;;;3.25;;
19414;SDS011;9843;48.882;12.592;2023-06-14T11:09:20;9.50;;;2.38;;
19414;SDS011;9843;48.882;12.592;2023-06-14T11:11:54;5.85;;;3.15;;
19414;SDS011;9843;48.882;12.592;2023-06-14T11:14:23;4.90;;;2.15;;
19414;SDS011;9843;48.882;12.592;2023-06-14T11:16:51;3.05;;;2.10;;
19414;SDS011;9843;48.882;12.592;2023-06-14T11:19:18;5.82;;;2.60;;
19414;SDS011;9843;48.882;12.592;2023-06-14T11:21:46;2.53;;;2.03;;
19414;SDS011;9843;48.882;12.592;2023-06-14T11:24:14;8.63;;;2.65;;
19414;SDS011;9843;48.882;12.592;2023-06-14T11:26:41;3.50;;;2.50;;
19414;SDS011;9843;48.882;12.592;2023-06-14T11:29:08;5.43;;;2.20;;
19414;SDS011;9843;48.882;12.592;2023-06-14T11:31:35;3.25;;;2.67;;
19414;SDS011;9843;48.882;12.592;2023-06-14T11:34:03;4.60;;;2.08;;
19414;SDS011;9843;48.882;12.592;2023-06-14T11:36:31;4.40;;;2.28;;
19414;SDS011;9843;48.882;12.592;2023-06-14T11:38:58;4.35;;;1.80;;
19414;SDS011;9843;48.882;12.592;2023-06-14T11:41:31;5.75;;;2.08;;
19414;SDS011;9843;48.882;12.592;2023-06-14T11:43:59;4.43;;;2.55;;
19414;SDS011;9843;48.882;12.592;2023-06-14T11:46:27;6.25;;;2.33;;
19414;SDS011;9843;48.882;12.592;2023-06-14T11:48:54;6.50;;;2.85;;
19414;SDS011;9843;48.882;12.592;2023-06-14T11:51:22;2.72;;;2.47;;
19414;SDS011;9843;48.882;12.592;2023-06-14T11:53:49;9.25;;;2.42;;
19414;SDS011;9843;48.882;12.592;2023-06-14T11:56:17;3.60;;;2.08;;
19414;SDS011;9843;48.882;12.592;2023-06-14T11:58:44;6.10;;;2.45;;
19414;SDS011;9843;48.882;12.592;2023-06-14T12:01:14;14.68;;;3.28;;
19414;SDS011;9843;48.882;12.592;2023-06-14T12:03:46;5.72;;;2.33;;
19414;SDS011;9843;48.882;12.592;2023-06-14T12:06:13;1.85;;;1.30;;
19414;SDS011;9843;48.882;12.592;2023-06-14T12:08:42;2.78;;;1.95;;
19414;SDS011;9843;48.882;12.592;2023-06-14T12:11:11;2.67;;;2.22;;
19414;SDS011;9843;48.882;12.592;2023-06-14T12:13:38;3.53;;;1.88;;
19414;SDS011;9843;48.882;12.592;2023-06-14T12:16:06;8.63;;;2.05;;
19414;SDS011;9843;48.882;12.592;2023-06-14T12:18:34;4.13;;;2.22;;
19414;SDS011;9843;48.882;12.592;2023-06-14T12:21:01;7.03;;;2.20;;
19414;SDS011;9843;48.882;12.592;2023-06-14T12:23:38;4.60;;;3.17;;
19414;SDS011;9843;48.882;12.592;2023-06-14T12:26:07;6.93;;;2.67;;
19414;SDS011;9843;48.882;12.592;2023-06-14T12:28:34;8.65;;;2.47;;
19414;SDS011;9843;48.882;12.592;2023-06-14T12:31:01;10.23;;;3.20;;
19414;SDS011;9843;48.882;12.592;2023-06-14T12:33:28;4.93;;;3.83;;
19414;SDS011;9843;48.882;12.592;2023-06-14T12:35:55;4.20;;;2.58;;
19414;SDS011;9843;48.882;12.592;2023-06-14T12:38:23;2.28;;;2.08;;
19414;SDS011;9843;48.882;12.592;2023-06-14T12:40:50;5.93;;;2.45;;
19414;SDS011;9843;48.882;12.592;2023-06-14T12:43:18;5.55;;;2.55;;
19414;SDS011;9843;48.882;12.592;2023-06-14T12:45:46;3.88;;;2.97;;
19414;SDS011;9843;48.882;12.592;2023-06-14T12:48:13;3.25;;;2.60;;
19414;SDS011;9843;48.882;12.592;2023-06-14T12:50:40;3.47;;;2.30;;
19414;SDS011;9843;48.882;12.592;2023-06-14T12:53:07;4.75;;;2.00;;
19414;SDS011;9843;48.882;12.592;2023-06-14T12:55:34;3.38;;;2.67;;
19414;SDS011;9843;48.882;12.592;2023-06-14T12:58:01;6.35;;;2.60;;
19414;SDS011;9843;48.882;12.592;2023-06-14T13:00:30;8.77;;;3.72;;
19414;SDS011;9843;48.882;12.592;2023-06-14T13:02:57;3.15;;;2.47;;
19414;SDS011;9843;48.882;12.592;2023-06-14T13:05:24;2.97;;;2.17;;
19414;SDS011;9843;48.882;12.592;2023-06-14T13:07:51;5.45;;;3.88;;
19414;SDS011;9843;48.882;12.592;2023-06-14T13:10:18;6.90;;;3.10;;
19414;SDS011;9843;48.882;12.592;2023-06-14T13:12:45;11.48;;;2.50;;
19414;SDS011;9843;48.882;12.592;2023-06-14T13:15:12;5.28;;;3.03;;
19414;SDS011;9843;48.882;12.592;2023-06-14T13:17:41;3.15;;;2.75;;
19414;SDS011;9843;48.882;12.592;2023-06-14T13:20:13;4.40;;;3.00;;
19414;SDS011;9843;48.882;12.592;2023-06-14T13:22:40;6.90;;;3.50;;
19414;SDS011;9843;48.882;12.592;2023-06-14T13:25:07;3.70;;;2.95;;
19414;SDS011;9843;48.882;12.592;2023-06-14T13:27:34;3.85;;;1.95;;
19414;SDS011;9843;48.882;12.592;2023-06-14T13:30:02;6.55;;;3.42;;
19414;SDS011;9843;48.882;12.592;2023-06-14T13:32:30;5.55;;;2.80;;
19414;SDS011;9843;48.882;12.592;2023-06-14T13:34:58;7.57;;;2.58;;
19414;SDS011;9843;48.882;12.592;2023-06-14T13:37:25;4.43;;;3.00;;
19414;SDS011;9843;48.882;12.592;2023-06-14T13:39:53;2.75;;;2.33;;
19414;SDS011;9843;48.882;12.592;2023-06-14T13:42:20;3.72;;;2.30;;
19414;SDS011;9843;48.882;12.592;2023-06-14T13:44:47;14.77;;;4.95;;
19414;SDS011;9843;48.882;12.592;2023-06-14T13:47:16;4.13;;;3.05;;
19414;SDS011;9843;48.882;12.592;2023-06-14T13:49:43;7.05;;;3.95;;
19414;SDS011;9843;48.882;12.592;2023-06-14T13:52:11;5.22;;;3.22;;
19414;SDS011;9843;48.882;12.592;2023-06-14T13:54:39;4.25;;;3.80;;
19414;SDS011;9843;48.882;12.592;2023-06-14T13:57:07;7.22;;;3.08;;
19414;SDS011;9843;48.882;12.592;2023-06-14T13:59:37;3.70;;;2.80;;
19414;SDS011;9843;48.882;12.592;2023-06-14T14:02:05;5.03;;;2.65;;
19414;SDS011;9843;48.882;12.592;2023-06-14T14:04:32;6.05;;;2.42;;
19414;SDS011;9843;48.882;12.592;2023-06-14T14:07:00;6.72;;;2.28;;
19414;SDS011;9843;48.882;12.592;2023-06-14T14:09:28;3.72;;;2.78;;
19414;SDS011;9843;48.882;12.592;2023-06-14T14:11:55;7.80;;;3.03;;
19414;SDS011;9843;48.882;12.592;2023-06-14T14:14:22;7.15;;;2.97;;
19414;SDS011;9843;48.882;12.592;2023-06-14T14:16:49;6.57;;;2.72;;
19414;SDS011;9843;48.882;12.592;2023-06-14T14:19:18;6.32;;;3.33;;
19414;SDS011;9843;48.882;12.592;2023-06-14T14:21:45;14.27;;;3.70;;
19414;SDS011;9843;48.882;12.592;2023-06-14T14:24:12;5.47;;;3.42;;
19414;SDS011;9843;48.882;12.592;2023-06-14T14:26:41;5.50;;;3.15;;
19414;SDS011;9843;48.882;12.592;2023-06-14T14:29:08;2.50;;;2.03;;
19414;SDS011;9843;48.882;12.592;2023-06-14T14:31:36;7.97;;;2.75;;
19414;SDS011;9843;48.882;12.592;2023-06-14T14:34:03;5.53;;;2.15;;
19414;SDS011;9843;48.882;12.592;2023-06-14T14:36:30;4.47;;;2.80;;
19414;SDS011;9843;48.882;12.592;2023-06-14T14:38:59;3.70;;;2.85;;
19414;SDS011;9843;48.882;12.592;2023-06-14T14:41:27;7.47;;;2.15;;
19414;SDS011;9843;48.882;12.592;2023-06-14T14:43:56;7.03;;;2.70;;
19414;SDS011;9843;48.882;12.592;2023-06-14T14:46:24;4.88;;;2.92;;
19414;SDS011;9843;48.882;12.592;2023-06-14T14:48:51;3.25;;;2.28;;
19414;SDS011;9843;48.882;12.592;2023-06-14T14:51:18;4.57;;;3.13;;
19414;SDS011;9843;48.882;12.592;2023-06-14T14:53:45;4.43;;;2.80;;
19414;SDS011;9843;48.882;12.592;2023-06-14T14:56:12;3.58;;;2.28;;
19414;SDS011;9843;48.882;12.592;2023-06-14T14:58:39;3.35;;;2.28;;